Time;durP1;ratioP1;P1;durP2;ratioP2;P2;SDS_P1;SDS_P2;PMS_P1;PMS_P2;Temp;Humidity;BMP_temperature;BMP_pressure;BME280_temperature;BME280_humidity;BME280_pressure;Samples;Min_cycle;Max_cycle;Signal;HPM_P1;HPM_P2
2023/07/24 00:02:07;;;;;;;21.80;11.63;;;;;;;20.36;64.95;92562.66;2044128;70;20187;-88
2023/07/24 00:04:33;;;;;;;21.48;12.32;;;;;;;20.36;63.29;92571.25;2044239;70;20147;-89
2023/07/24 00:07:00;;;;;;;19.10;11.90;;;;;;;20.32;64.25;92556.84;2043947;70;20151;-89
2023/07/24 00:09:25;;;;;;;22.05;11.85;;;;;;;20.39;64.05;92549.88;2043884;70;20151;-88
2023/07/24 00:11:51;;;;;;;21.90;12.43;;;;;;;20.16;64.59;92550.75;2044209;70;20238;-89
2023/07/24 00:14:17;;;;;;;21.63;11.68;;;;;;;20.21;64.58;92555.91;2044224;70;20143;-89
2023/07/24 00:16:43;;;;;;;19.60;11.75;;;;;;;20.27;64.59;92555.31;2041139;70;20627;-88
2023/07/24 00:19:10;;;;;;;19.15;11.50;;;;;;;20.18;65.68;92545.09;2044681;70;20139;-88
2023/07/24 00:21:36;;;;;;;19.15;12.02;;;;;;;20.22;65.62;92550.91;2044653;70;20143;-89
2023/07/24 00:24:01;;;;;;;23.08;12.05;;;;;;;20.06;64.95;92551.97;2044281;70;20168;-88
2023/07/24 00:26:27;;;;;;;22.60;12.00;;;;;;;20.13;65.04;92544.28;2044284;70;20585;-88
2023/07/24 00:28:53;;;;;;;23.70;12.40;;;;;;;20.05;66.14;92541.97;2044045;70;20519;-90
2023/07/24 00:31:19;;;;;;;20.30;11.50;;;;;;;20.08;65.96;92551.31;2040870;70;20135;-87
2023/07/24 00:33:45;;;;;;;20.38;12.48;;;;;;;20.05;65.18;92538.38;2041394;70;20150;-87
2023/07/24 00:36:11;;;;;;;19.50;12.00;;;;;;;20.11;64.73;92541.38;2044170;70;20624;-89
2023/07/24 00:38:36;;;;;;;20.42;12.35;;;;;;;20.11;64.92;92535.66;2044209;70;20147;-86
2023/07/24 00:41:03;;;;;;;18.33;12.60;;;;;;;20.13;64.87;92535.00;2043781;70;20159;-87
2023/07/24 00:43:29;;;;;;;19.02;12.27;;;;;;;20.01;64.14;92527.56;2044275;70;20605;-87
2023/07/24 00:45:56;;;;;;;21.33;11.93;;;;;;;20.12;64.27;92534.28;2038332;70;20131;-88
2023/07/24 00:48:25;;;;;;;22.52;12.52;;;;;;;19.97;64.20;92533.19;2041021;70;20186;-88
2023/07/24 00:50:51;;;;;;;21.45;13.02;;;;;;;19.96;64.01;92537.47;2041060;70;20257;-87
2023/07/24 00:53:18;;;;;;;20.83;12.80;;;;;;;19.86;64.83;92540.09;2040762;70;20249;-89
2023/07/24 00:55:45;;;;;;;21.73;12.35;;;;;;;19.82;64.41;92537.13;2044825;70;20306;-90
2023/07/24 00:58:11;;;;;;;25.15;12.27;;;;;;;19.91;64.71;92527.34;2044897;70;20151;-90
2023/07/24 01:00:40;;;;;;;22.42;11.90;;;;;;;19.87;64.98;92527.25;2044572;70;20174;-90
2023/07/24 01:03:07;;;;;;;25.60;11.45;;;;;;;19.87;65.79;92529.38;2041739;70;20151;-89
2023/07/24 01:05:33;;;;;;;20.25;12.32;;;;;;;19.62;65.84;92528.09;2044710;70;20223;-90
2023/07/24 01:07:59;;;;;;;20.27;11.90;;;;;;;19.71;64.62;92513.31;2045141;70;20605;-90
2023/07/24 01:10:26;;;;;;;21.75;11.93;;;;;;;19.74;65.13;92516.94;2044992;70;20147;-89
2023/07/24 01:13:02;;;;;;;23.80;12.25;;;;;;;19.69;65.63;92507.53;2038836;70;20174;-87
2023/07/24 01:15:54;;;;;;;20.95;12.25;;;;;;;19.61;66.31;92513.09;2041085;70;20151;-89
2023/07/24 01:18:24;;;;;;;21.90;11.57;;;;;;;19.45;66.49;92492.66;2041660;70;20161;-89
2023/07/24 01:20:56;;;;;;;19.38;11.60;;;;;;;19.52;66.13;92502.84;2045362;70;21001;-89
2023/07/24 01:23:43;;;;;;;20.70;12.25;;;;;;;19.40;67.24;92494.69;2045020;70;20194;-87
2023/07/24 01:26:10;;;;;;;21.92;11.68;;;;;;;19.26;67.17;92468.66;2041998;70;20131;-90
2023/07/24 01:28:35;;;;;;;18.20;11.80;;;;;;;19.46;66.62;92483.41;2045797;70;20159;-88
2023/07/24 01:31:01;;;;;;;19.65;12.25;;;;;;;19.43;66.48;92489.78;2042802;70;20234;-87
2023/07/24 01:33:29;;;;;;;22.30;12.10;;;;;;;19.28;67.62;92489.38;2041954;70;20932;-88
2023/07/24 01:35:59;;;;;;;22.98;12.45;;;;;;;19.15;66.18;92453.41;2044889;70;20159;-88
2023/07/24 01:38:25;;;;;;;22.10;12.20;;;;;;;19.07;67.92;92453.22;2044842;70;20142;-87
2023/07/24 01:40:55;;;;;;;21.98;11.70;;;;;;;19.23;66.44;92467.88;2045198;70;20162;-90
2023/07/24 01:43:21;;;;;;;21.10;11.98;;;;;;;19.25;67.30;92481.47;2041963;70;20514;-88
2023/07/24 01:45:47;;;;;;;22.58;12.65;;;;;;;19.15;67.44;92486.91;2045252;70;20155;-90
2023/07/24 01:48:12;;;;;;;23.33;12.10;;;;;;;19.04;68.02;92486.66;2039361;70;20609;-87
2023/07/24 01:50:40;;;;;;;23.50;12.23;;;;;;;19.04;67.88;92477.38;2042754;70;20162;-85
2023/07/24 01:53:06;;;;;;;24.15;12.27;;;;;;;19.01;68.70;92479.47;2048790;70;20181;-86
2023/07/24 01:55:31;;;;;;;19.88;11.75;;;;;;;19.01;67.91;92470.16;2043386;70;20556;-87
2023/07/24 01:57:57;;;;;;;22.38;12.48;;;;;;;18.97;67.68;92473.66;2045922;70;20136;-87
2023/07/24 02:00:23;;;;;;;21.42;13.27;;;;;;;18.57;69.07;92459.00;2044540;70;20167;-87
2023/07/24 02:02:56;;;;;;;22.38;12.30;;;;;;;18.72;67.79;92477.97;2047605;70;20151;-87
2023/07/24 02:05:22;;;;;;;20.83;12.50;;;;;;;18.80;68.37;92477.47;2047970;70;20159;-87
2023/07/24 02:07:48;;;;;;;21.38;12.90;;;;;;;18.70;68.22;92463.66;2042772;70;20190;-88
2023/07/24 02:10:13;;;;;;;20.63;12.52;;;;;;;18.64;68.68;92471.28;2045119;70;20238;-88
2023/07/24 02:12:39;;;;;;;25.63;12.52;;;;;;;18.71;68.93;92472.94;2050013;70;20557;-87
2023/07/24 02:15:06;;;;;;;22.42;12.77;;;;;;;18.59;68.88;92464.75;2049482;70;20147;-87
2023/07/24 02:17:31;;;;;;;23.58;12.68;;;;;;;18.65;67.94;92467.06;2047293;70;20174;-87
2023/07/24 02:19:57;;;;;;;23.08;13.23;;;;;;;18.07;71.30;92467.56;2049536;70;20170;-88
2023/07/24 02:22:23;;;;;;;23.80;11.68;;;;;;;18.36;70.03;92469.09;2048750;70;20150;-88
2023/07/24 02:24:49;;;;;;;17.90;12.02;;;;;;;18.21;70.47;92473.66;2045638;70;20234;-86
2023/07/24 02:27:33;;;;;;;21.55;12.27;;;;;;;18.36;69.97;92474.06;2043697;70;20640;-88
2023/07/24 02:30:00;;;;;;;24.38;13.18;;;;;;;18.26;70.18;92474.50;2042344;70;20242;-88
2023/07/24 02:32:26;;;;;;;20.17;12.30;;;;;;;18.19;70.74;92481.41;2045173;70;20242;-88
2023/07/24 02:34:52;;;;;;;21.02;12.90;;;;;;;18.23;70.03;92479.41;2041805;70;20698;-86
2023/07/24 02:37:19;;;;;;;26.15;13.30;;;;;;;18.33;69.78;92469.72;2045112;70;20135;-87
2023/07/24 02:39:44;;;;;;;18.92;12.35;;;;;;;18.33;70.49;92464.75;2045211;70;20151;-88
2023/07/24 02:42:10;;;;;;;22.85;12.88;;;;;;;18.32;69.74;92454.72;2045225;70;20534;-90
2023/07/24 02:44:36;;;;;;;23.45;12.18;;;;;;;18.26;70.02;92446.03;2045156;70;20589;-90
2023/07/24 02:47:03;;;;;;;22.80;12.88;;;;;;;18.27;69.47;92442.50;2039136;70;20624;-86
2023/07/24 02:49:29;;;;;;;23.92;13.27;;;;;;;17.93;70.45;92436.53;2041881;70;20635;-89
2023/07/24 02:51:56;;;;;;;23.60;13.05;;;;;;;18.14;69.71;92439.97;2044749;70;20158;-88
2023/07/24 02:54:21;;;;;;;21.98;12.52;;;;;;;18.17;69.29;92439.38;2041719;70;20151;-89
2023/07/24 02:56:47;;;;;;;23.77;13.15;;;;;;;18.15;70.36;92436.47;2041639;70;20175;-88
2023/07/24 02:59:13;;;;;;;21.73;12.32;;;;;;;18.20;69.42;92418.09;2038929;70;20262;-89
2023/07/24 03:01:42;;;;;;;19.52;12.98;;;;;;;18.25;69.14;92441.72;2041666;70;20286;-89
2023/07/24 03:04:09;;;;;;;23.40;12.95;;;;;;;17.97;69.97;92422.44;2041640;70;20163;-89
2023/07/24 03:06:35;;;;;;;23.98;13.43;;;;;;;18.06;69.61;92420.53;2045177;70;20166;-86
2023/07/24 03:09:01;;;;;;;24.90;12.88;;;;;;;18.13;69.42;92412.88;2041607;70;20230;-87
2023/07/24 03:11:28;;;;;;;24.15;13.13;;;;;;;17.92;70.22;92411.59;2041709;70;20155;-88
2023/07/24 03:13:55;;;;;;;23.95;13.05;;;;;;;18.02;69.36;92414.72;2044792;70;20537;-88
2023/07/24 03:16:21;;;;;;;22.75;13.05;;;;;;;17.97;69.95;92421.69;2041558;70;20607;-87
2023/07/24 03:18:46;;;;;;;20.83;12.90;;;;;;;18.00;70.03;92421.06;2044780;70;20536;-88
2023/07/24 03:21:14;;;;;;;23.42;13.50;;;;;;;18.09;69.12;92433.41;2041419;70;20255;-89
2023/07/24 03:23:41;;;;;;;20.88;13.13;;;;;;;18.08;69.31;92442.66;2041531;70;20514;-89
2023/07/24 03:26:07;;;;;;;22.85;12.85;;;;;;;17.83;70.63;92453.34;2044860;70;20246;-88
2023/07/24 03:28:33;;;;;;;24.08;13.20;;;;;;;17.93;70.01;92447.22;2044772;70;20613;-88
2023/07/24 03:31:01;;;;;;;24.13;13.20;;;;;;;17.90;70.21;92448.53;2044821;70;20154;-88
2023/07/24 03:33:27;;;;;;;23.08;13.63;;;;;;;17.84;70.47;92454.78;2045013;70;20624;-89
2023/07/24 03:35:53;;;;;;;21.75;12.77;;;;;;;17.88;70.10;92446.34;2044812;70;20253;-88
2023/07/24 03:38:18;;;;;;;24.38;13.40;;;;;;;17.77;70.43;92445.31;2041408;70;20154;-89
2023/07/24 03:40:49;;;;;;;23.23;13.10;;;;;;;17.90;70.00;92443.56;2044778;70;20170;-89
2023/07/24 03:43:15;;;;;;;21.95;14.05;;;;;;;17.81;70.04;92424.78;2045065;70;20608;-89
2023/07/24 03:45:42;;;;;;;22.80;13.43;;;;;;;17.93;68.95;92419.44;2044917;70;20151;-88
2023/07/24 03:48:07;;;;;;;22.92;14.13;;;;;;;17.47;70.91;92424.44;2044740;70;20660;-87
2023/07/24 03:50:34;;;;;;;24.30;13.77;;;;;;;17.60;70.84;92431.25;2044762;70;20146;-89
2023/07/24 03:53:00;;;;;;;19.65;13.02;;;;;;;17.64;70.63;92437.03;2041447;70;20139;-89
2023/07/24 03:55:25;;;;;;;24.25;12.73;;;;;;;17.67;70.31;92435.72;2044789;70;20157;-90
2023/07/24 03:57:51;;;;;;;24.85;13.82;;;;;;;17.80;69.74;92434.72;2041431;70;20269;-90
2023/07/24 04:00:18;;;;;;;20.70;12.80;;;;;;;17.82;69.54;92453.97;2038191;70;20191;-87
2023/07/24 04:02:46;;;;;;;23.95;14.07;;;;;;;17.24;71.31;92460.00;2041507;70;20151;-89
2023/07/24 04:05:13;;;;;;;22.60;13.40;;;;;;;17.49;70.55;92453.69;2042573;70;20171;-89
2023/07/24 04:07:39;;;;;;;20.98;13.25;;;;;;;17.57;70.31;92453.22;2040893;70;20139;-88
2023/07/24 04:10:06;;;;;;;20.70;13.23;;;;;;;17.50;70.32;92457.25;2041059;70;20199;-88
2023/07/24 04:12:32;;;;;;;23.40;13.80;;;;;;;17.57;69.93;92452.50;2040973;70;20317;-88
2023/07/24 04:14:58;;;;;;;21.70;13.73;;;;;;;17.60;70.68;92457.59;2041056;70;20138;-88
2023/07/24 04:17:23;;;;;;;20.73;12.85;;;;;;;17.63;70.55;92461.94;2041486;70;20151;-88
2023/07/24 04:19:49;;;;;;;25.05;14.02;;;;;;;17.62;69.68;92454.06;2041420;70;20147;-89
2023/07/24 04:22:14;;;;;;;23.85;13.40;;;;;;;17.70;69.98;92445.78;2041370;70;20127;-87
2023/07/24 04:24:40;;;;;;;22.08;13.00;;;;;;;17.73;70.26;92450.13;2041337;70;20135;-88
2023/07/24 04:27:06;;;;;;;21.40;12.88;;;;;;;17.54;70.04;92437.47;2040891;70;20182;-88
2023/07/24 04:29:33;;;;;;;23.33;13.35;;;;;;;17.62;70.51;92429.19;2041604;70;20159;-89
2023/07/24 04:31:59;;;;;;;22.23;13.57;;;;;;;17.72;69.82;92412.41;2041722;70;20190;-89
2023/07/24 04:34:24;;;;;;;25.48;13.55;;;;;;;17.86;69.58;92414.25;2041835;70;20155;-90
2023/07/24 04:36:50;;;;;;;21.73;13.40;;;;;;;17.87;69.53;92419.28;2041307;70;20155;-90
2023/07/24 04:39:15;;;;;;;24.80;14.85;;;;;;;17.86;69.43;92422.78;2041957;70;20178;-89
2023/07/24 04:41:42;;;;;;;24.52;14.10;;;;;;;17.98;68.10;92423.16;2042029;70;20147;-89
2023/07/24 04:44:08;;;;;;;24.73;14.20;;;;;;;18.09;67.60;92424.88;2043921;70;20143;-89
2023/07/24 04:46:33;;;;;;;23.13;13.23;;;;;;;18.15;67.93;92422.22;2043486;70;20147;-89
2023/07/24 04:48:59;;;;;;;22.88;13.70;;;;;;;18.08;68.51;92423.44;2042437;70;20179;-87
2023/07/24 04:51:27;;;;;;;24.85;13.75;;;;;;;18.06;69.47;92426.22;2042057;70;20738;-89
2023/07/24 04:53:53;;;;;;;22.48;14.02;;;;;;;18.09;69.31;92412.75;2041814;70;20566;-89
2023/07/24 04:56:19;;;;;;;23.38;14.13;;;;;;;18.24;67.08;92431.72;2041874;70;20533;-89
2023/07/24 04:58:44;;;;;;;24.23;14.88;;;;;;;18.02;67.75;92432.53;2042334;70;20151;-88
2023/07/24 05:01:10;;;;;;;22.25;14.07;;;;;;;18.25;67.68;92427.47;2045122;70;20173;-86
2023/07/24 05:03:36;;;;;;;24.30;14.23;;;;;;;18.03;67.71;92419.03;2044522;70;20594;-88
2023/07/24 05:06:02;;;;;;;23.30;13.57;;;;;;;18.20;68.29;92423.06;2041924;70;20173;-86
2023/07/24 05:08:28;;;;;;;25.40;13.98;;;;;;;18.29;68.12;92428.31;2044962;70;20139;-88
2023/07/24 05:10:55;;;;;;;21.05;13.80;;;;;;;18.46;68.49;92425.91;2045145;70;20150;-88
2023/07/24 05:13:20;;;;;;;23.02;13.48;;;;;;;18.59;68.46;92424.09;2045309;70;20146;-87
2023/07/24 05:15:46;;;;;;;24.52;14.55;;;;;;;18.56;67.99;92420.50;2045289;70;20155;-87
2023/07/24 05:18:11;;;;;;;22.73;14.48;;;;;;;18.64;67.62;92420.69;2045106;70;20249;-89
2023/07/24 05:20:52;;;;;;;21.38;14.13;;;;;;;18.76;67.59;92418.19;2045214;70;20242;-85
2023/07/24 05:23:19;;;;;;;20.98;14.07;;;;;;;18.86;66.18;92397.75;2045073;70;20142;-89
2023/07/24 05:25:45;;;;;;;23.90;14.15;;;;;;;19.01;64.77;92407.41;2045253;70;20486;-88
2023/07/24 05:28:11;;;;;;;21.80;13.77;;;;;;;18.99;65.19;92404.50;2045226;70;20204;-88
2023/07/24 05:30:36;;;;;;;23.92;13.95;;;;;;;19.05;66.34;92387.53;2045115;70;20146;-90
2023/07/24 05:33:02;;;;;;;21.63;13.65;;;;;;;19.16;65.10;92386.38;2041921;70;20185;-87
2023/07/24 05:35:28;;;;;;;23.83;14.00;;;;;;;19.21;64.88;92392.91;2045444;70;20194;-89
2023/07/24 05:37:53;;;;;;;20.85;13.25;;;;;;;19.10;64.35;92385.50;2042463;70;20147;-90
2023/07/24 05:40:19;;;;;;;21.02;13.80;;;;;;;19.23;64.95;92382.25;2042105;70;20186;-89
2023/07/24 05:42:45;;;;;;;25.50;14.20;;;;;;;18.90;66.70;92389.31;2042090;70;20163;-89
2023/07/24 05:45:11;;;;;;;22.20;13.48;;;;;;;19.13;66.11;92384.88;2045627;70;20139;-88
2023/07/24 05:47:37;;;;;;;20.63;13.75;;;;;;;19.15;65.10;92395.59;2042480;70;20142;-90
2023/07/24 05:50:03;;;;;;;24.08;14.43;;;;;;;19.11;66.25;92390.56;2045706;70;20589;-89
2023/07/24 05:52:30;;;;;;;25.05;14.00;;;;;;;19.16;65.78;92391.38;2042249;70;20147;-86
2023/07/24 05:54:59;;;;;;;23.70;13.95;;;;;;;19.18;65.78;92388.56;2045160;70;20143;-87
2023/07/24 05:57:24;;;;;;;21.45;13.57;;;;;;;19.38;63.97;92396.88;2042471;70;20150;-88
2023/07/24 05:59:52;;;;;;;22.58;13.45;;;;;;;19.54;64.89;92400.81;2047504;70;20159;-88
2023/07/24 06:02:20;;;;;;;21.90;13.68;;;;;;;19.54;64.96;92397.97;2049801;70;20632;-87
2023/07/24 06:04:46;;;;;;;24.08;14.13;;;;;;;19.77;64.73;92384.94;2049761;70;20139;-88
2023/07/24 06:07:12;;;;;;;25.02;14.48;;;;;;;19.49;66.29;92390.00;2044813;70;20162;-89
2023/07/24 06:09:39;;;;;;;25.10;15.40;;;;;;;18.71;67.15;92398.81;2043188;70;20148;-83
2023/07/24 06:12:06;;;;;;;24.50;14.50;;;;;;;19.36;65.87;92388.97;2039790;70;20158;-84
2023/07/24 06:14:31;;;;;;;24.52;13.98;;;;;;;19.87;63.44;92395.84;2041684;70;20139;-87
2023/07/24 06:16:57;;;;;;;21.92;14.05;;;;;;;20.18;64.28;92396.50;2043004;70;20162;-86
2023/07/24 06:19:22;;;;;;;22.80;14.70;;;;;;;20.46;61.81;92402.78;2043305;70;20254;-89
2023/07/24 06:21:48;;;;;;;23.55;13.77;;;;;;;20.37;61.64;92409.03;2042994;70;20150;-89
2023/07/24 06:24:14;;;;;;;20.92;12.75;;;;;;;20.67;62.72;92395.34;2040830;70;20156;-86
2023/07/24 06:26:40;;;;;;;19.48;12.95;;;;;;;20.73;58.58;92386.88;2039275;70;20214;-86
2023/07/24 06:29:05;;;;;;;26.95;14.05;;;;;;;20.41;60.69;92389.81;2043516;70;20140;-88
2023/07/24 06:31:31;;;;;;;26.15;14.80;;;;;;;20.39;60.86;92391.91;2046026;70;20142;-89
2023/07/24 06:33:58;;;;;;;25.95;15.18;;;;;;;20.44;61.08;92385.59;2047536;70;20163;-90
2023/07/24 06:36:26;;;;;;;24.45;14.73;;;;;;;20.44;62.89;92393.44;2047790;70;20143;-87
2023/07/24 06:38:51;;;;;;;23.73;13.98;;;;;;;20.41;63.19;92400.53;2046099;70;20159;-89
2023/07/24 06:41:19;;;;;;;24.60;14.30;;;;;;;20.22;64.79;92385.16;2042522;70;20146;-89
2023/07/24 06:43:45;;;;;;;24.25;14.35;;;;;;;20.27;65.02;92400.97;2042883;70;20613;-85
2023/07/24 06:46:11;;;;;;;23.15;14.18;;;;;;;20.13;65.68;92407.13;2042152;70;20631;-87
2023/07/24 06:48:37;;;;;;;21.33;13.15;;;;;;;20.19;64.97;92421.53;2042512;70;20139;-88
2023/07/24 06:51:02;;;;;;;23.42;14.40;;;;;;;20.16;65.55;92425.78;2042255;70;20605;-89
2023/07/24 06:53:28;;;;;;;25.55;14.52;;;;;;;19.99;65.52;92424.69;2042299;70;20198;-88
2023/07/24 06:55:53;;;;;;;22.95;14.68;;;;;;;20.00;64.26;92442.56;2043024;70;20151;-89
2023/07/24 06:58:19;;;;;;;22.30;14.18;;;;;;;20.00;65.47;92460.41;2038820;70;20144;-85
2023/07/24 07:00:44;;;;;;;21.63;14.43;;;;;;;19.90;66.00;92465.91;2041725;70;20143;-89
2023/07/24 07:03:10;;;;;;;20.67;14.52;;;;;;;19.92;65.49;92499.50;2042700;70;20199;-88
2023/07/24 07:05:36;;;;;;;23.67;14.50;;;;;;;19.97;65.37;92512.47;2042221;70;20636;-88
2023/07/24 07:08:01;;;;;;;21.85;14.23;;;;;;;19.92;66.54;92528.78;2039035;70;20162;-89
2023/07/24 07:10:27;;;;;;;25.63;14.82;;;;;;;19.86;66.00;92560.06;2043387;70;20580;-88
2023/07/24 07:12:53;;;;;;;22.92;14.32;;;;;;;19.95;65.38;92558.88;2043290;70;20125;-85
2023/07/24 07:15:19;;;;;;;23.20;13.93;;;;;;;19.89;66.56;92567.31;2042063;70;20139;-87
2023/07/24 07:17:45;;;;;;;23.23;14.68;;;;;;;19.73;66.31;92541.19;2042753;70;20143;-89
2023/07/24 07:20:10;;;;;;;26.80;15.43;;;;;;;19.67;67.19;92515.34;2042977;70;20163;-87
2023/07/24 07:22:36;;;;;;;26.98;15.07;;;;;;;19.63;67.66;92483.84;2042854;70;20146;-91
2023/07/24 07:25:02;;;;;;;24.30;14.88;;;;;;;18.99;70.49;92484.38;2041517;70;20164;-83
2023/07/24 07:27:28;;;;;;;23.45;15.38;;;;;;;19.36;71.21;92479.59;2041377;70;20583;-83
2023/07/24 07:29:53;;;;;;;24.45;14.48;;;;;;;19.60;71.31;92468.03;2041365;70;20147;-83
2023/07/24 07:32:19;;;;;;;27.83;15.45;;;;;;;19.67;70.07;92510.38;2041453;70;20131;-83
2023/07/24 07:34:45;;;;;;;24.15;15.35;;;;;;;19.89;69.44;92461.63;2041478;70;20154;-84
2023/07/24 07:37:10;;;;;;;23.42;15.50;;;;;;;19.72;70.37;92454.06;2041334;70;20231;-81
2023/07/24 07:39:36;;;;;;;25.80;15.00;;;;;;;20.18;68.46;92451.53;2041358;70;20167;-83
2023/07/24 07:42:01;;;;;;;25.17;14.50;;;;;;;20.29;68.83;92443.88;2041378;70;20150;-79
2023/07/24 07:44:27;;;;;;;23.55;15.02;;;;;;;20.19;69.92;92446.53;2041269;70;20601;-85
2023/07/24 07:46:53;;;;;;;24.88;14.35;;;;;;;20.71;67.83;92443.28;2041494;70;20593;-79
2023/07/24 07:49:22;;;;;;;20.25;13.85;;;;;;;20.70;68.70;92433.28;2041371;70;20173;-80
2023/07/24 07:51:48;;;;;;;23.88;13.95;;;;;;;20.74;65.89;92431.22;2041204;70;20214;-81
2023/07/24 07:54:14;;;;;;;19.90;13.20;;;;;;;21.13;67.58;92420.47;2041199;70;20147;-80
2023/07/24 07:56:39;;;;;;;21.02;13.00;;;;;;;20.87;66.93;92420.00;2041189;70;20143;-80
2023/07/24 07:59:07;;;;;;;21.50;14.27;;;;;;;20.97;67.46;92431.63;2041567;70;20155;-80
2023/07/24 08:01:32;;;;;;;23.65;13.65;;;;;;;21.36;68.97;92426.59;2038221;70;20250;-83
2023/07/24 08:03:58;;;;;;;20.40;12.60;;;;;;;22.05;68.58;92416.19;2041893;70;20155;-85
2023/07/24 08:06:24;;;;;;;21.40;12.77;;;;;;;22.35;65.19;92418.72;2041857;70;20141;-84
2023/07/24 08:08:50;;;;;;;18.60;12.23;;;;;;;22.60;65.14;92405.44;2041733;70;20246;-83
2023/07/24 08:11:15;;;;;;;16.67;11.73;;;;;;;22.91;64.98;92420.84;2038908;70;20565;-85
2023/07/24 08:13:41;;;;;;;17.50;11.55;;;;;;;22.94;59.66;92430.19;2041891;70;20254;-85
2023/07/24 08:16:18;;;;;;;17.58;11.57;;;;;;;22.65;59.94;92427.00;2042018;70;20183;-87
2023/07/24 08:18:50;;;;;;;17.63;11.02;;;;;;;23.07;59.23;92429.63;2041671;70;20230;-82
2023/07/24 08:21:16;;;;;;;18.58;11.88;;;;;;;23.06;58.74;92425.31;2048332;70;20166;-82
2023/07/24 08:23:42;;;;;;;17.48;11.23;;;;;;;23.41;59.73;92424.91;2048491;70;20205;-85
2023/07/24 08:26:07;;;;;;;16.92;10.43;;;;;;;23.31;59.54;92416.91;2045181;70;20151;-82
2023/07/24 08:28:36;;;;;;;16.88;10.50;;;;;;;23.83;61.63;92431.03;2045401;70;20130;-83
2023/07/24 08:31:02;;;;;;;15.70;10.00;;;;;;;23.92;64.46;92419.59;2048607;70;20179;-84
2023/07/24 08:33:29;;;;;;;16.35;10.75;;;;;;;24.27;63.28;92411.88;2045266;70;20509;-85
2023/07/24 08:36:06;;;;;;;15.25;10.65;;;;;;;24.27;65.33;92409.00;2048466;70;20676;-82
2023/07/24 08:38:32;;;;;;;16.70;10.38;;;;;;;24.35;65.19;92424.16;2047823;70;20154;-86
2023/07/24 08:41:06;;;;;;;16.48;11.20;;;;;;;24.48;61.29;92424.25;2049028;70;20155;-86
2023/07/24 08:43:33;;;;;;;18.85;11.85;;;;;;;24.43;60.63;92422.78;2045436;70;20529;-84
2023/07/24 08:46:00;;;;;;;21.38;12.52;;;;;;;24.36;59.34;92424.88;2048696;70;20151;-87
2023/07/24 08:48:38;;;;;;;20.98;12.52;;;;;;;24.92;60.04;92415.03;2044299;70;20161;-83
2023/07/24 08:51:15;;;;;;;17.30;11.15;;;;;;;24.95;54.34;92401.38;2043524;70;20153;-83
2023/07/24 08:53:42;;;;;;;16.73;11.10;;;;;;;25.34;54.93;92419.47;2047335;70;20146;-83
2023/07/24 08:56:12;;;;;;;15.20;10.52;;;;;;;25.59;55.05;92423.09;2047400;70;20317;-79
2023/07/24 08:58:44;;;;;;;17.95;10.43;;;;;;;25.81;53.92;92425.28;2047288;70;20182;-81
2023/07/24 09:01:10;;;;;;;15.07;11.07;;;;;;;26.13;55.97;92421.66;2047436;70;20162;-80
2023/07/24 09:03:37;;;;;;;14.95;10.05;;;;;;;26.33;57.29;92415.09;2048026;70;20151;-79
2023/07/24 09:06:03;;;;;;;15.00;10.73;;;;;;;26.24;54.70;92420.19;2048431;70;20197;-81
2023/07/24 09:08:43;;;;;;;15.38;10.43;;;;;;;26.02;55.50;92411.56;2045149;70;20572;-79
2023/07/24 09:11:10;;;;;;;14.75;10.05;;;;;;;25.92;57.26;92409.41;2044995;70;20147;-79
2023/07/24 09:13:38;;;;;;;14.88;9.95;;;;;;;25.68;58.12;92392.13;2047880;70;20145;-80
2023/07/24 09:16:05;;;;;;;14.02;9.77;;;;;;;25.92;58.68;92371.22;2048209;70;20138;-78
2023/07/24 09:18:41;;;;;;;16.30;10.35;;;;;;;25.63;55.57;92344.56;2048149;70;20132;-79
2023/07/24 09:21:07;;;;;;;15.23;10.35;;;;;;;25.74;53.69;92299.84;2044944;70;20672;-80
2023/07/24 09:23:35;;;;;;;15.45;10.48;;;;;;;26.06;55.57;92307.72;2048287;70;20143;-79
2023/07/24 09:26:06;;;;;;;13.73;10.57;;;;;;;26.02;58.32;92322.16;2047749;70;20139;-81
2023/07/24 09:28:34;;;;;;;15.55;10.63;;;;;;;25.72;60.02;92332.31;2047859;70;20193;-82
2023/07/24 09:31:04;;;;;;;14.25;10.50;;;;;;;25.97;59.69;92329.38;2048092;70;20616;-80
2023/07/24 09:33:38;;;;;;;13.50;10.55;;;;;;;26.02;59.92;92307.75;2048258;70;20239;-79
2023/07/24 09:36:07;;;;;;;15.45;10.50;;;;;;;26.29;58.92;92296.81;2048276;70;20245;-81
2023/07/24 09:38:32;;;;;;;13.98;10.38;;;;;;;26.25;59.05;92309.13;2048173;70;20174;-82
2023/07/24 09:41:01;;;;;;;15.02;10.48;;;;;;;26.12;54.79;92295.47;2048229;70;20142;-86
2023/07/24 09:43:27;;;;;;;14.68;10.07;;;;;;;25.97;51.95;92300.53;2047929;70;20166;-85
2023/07/24 09:45:54;;;;;;;15.88;11.27;;;;;;;26.03;50.67;92303.44;2048308;70;20147;-82
2023/07/24 09:48:22;;;;;;;14.50;10.82;;;;;;;25.80;56.68;92312.13;2049753;70;20146;-80
2023/07/24 09:50:49;;;;;;;15.13;10.63;;;;;;;25.80;58.98;92300.59;2045775;70;20153;-80
2023/07/24 09:53:24;;;;;;;14.68;10.75;;;;;;;25.75;59.89;92302.03;2048716;70;20142;-80
2023/07/24 09:55:58;;;;;;;14.55;10.38;;;;;;;26.00;57.43;92287.56;2049034;70;20228;-80
2023/07/24 09:58:25;;;;;;;16.15;10.40;;;;;;;26.38;57.16;92280.91;2049294;70;20142;-80
2023/07/24 10:00:52;;;;;;;15.48;10.57;;;;;;;26.68;56.84;92277.19;2049416;70;20585;-80
2023/07/24 10:03:20;;;;;;;15.63;10.85;;;;;;;26.47;55.39;92267.91;2049415;70;20616;-80
2023/07/24 10:05:46;;;;;;;15.25;10.70;;;;;;;26.38;58.32;92252.06;2046413;70;20165;-83
2023/07/24 10:08:14;;;;;;;15.02;10.85;;;;;;;26.49;53.00;92236.16;2048734;70;20222;-81
2023/07/24 10:10:40;;;;;;;14.25;10.52;;;;;;;26.29;50.19;92230.47;2048627;70;20151;-82
2023/07/24 10:13:10;;;;;;;17.13;10.38;;;;;;;26.59;49.64;92233.22;2048490;70;20147;-84
2023/07/24 10:15:37;;;;;;;14.40;10.35;;;;;;;26.82;51.92;92253.28;2048697;70;20587;-82
2023/07/24 10:18:08;;;;;;;14.65;10.00;;;;;;;26.94;49.93;92241.63;2048254;70;20174;-81
2023/07/24 10:20:36;;;;;;;14.60;10.52;;;;;;;27.04;47.06;92232.19;2048460;70;20146;-82
2023/07/24 10:23:03;;;;;;;14.88;10.75;;;;;;;27.35;47.41;92221.81;2045255;70;20130;-84
2023/07/24 10:25:33;;;;;;;14.93;10.38;;;;;;;27.33;46.98;92212.44;2048592;70;20166;-82
2023/07/24 10:28:10;;;;;;;13.23;10.00;;;;;;;27.23;47.65;92198.09;2048767;70;20131;-81
2023/07/24 10:30:36;;;;;;;13.60;10.23;;;;;;;26.99;51.74;92196.84;2048303;70;20143;-82
2023/07/24 10:33:13;;;;;;;14.70;10.18;;;;;;;27.15;54.43;92204.66;2048198;70;20131;-83
2023/07/24 10:35:39;;;;;;;14.45;10.10;;;;;;;27.73;52.45;92208.44;2048152;70;20143;-82
2023/07/24 10:38:05;;;;;;;12.05;9.82;;;;;;;27.78;52.54;92218.50;2048137;70;20246;-79
2023/07/24 10:40:32;;;;;;;13.77;9.73;;;;;;;28.88;47.64;92187.38;2045691;70;20655;-80
2023/07/24 10:43:04;;;;;;;16.40;10.65;;;;;;;29.67;43.93;92181.72;2046979;70;20247;-79
2023/07/24 10:45:53;;;;;;;15.70;9.10;;;;;;;29.30;42.69;92180.19;2038482;70;20643;-81
2023/07/24 10:48:21;;;;;;;13.52;9.00;;;;;;;29.29;41.69;92180.94;2041525;70;20139;-80
2023/07/24 10:50:50;;;;;;;13.50;10.10;;;;;;;28.48;42.79;92192.31;2041457;70;20147;-83
2023/07/24 10:53:18;;;;;;;14.57;9.85;;;;;;;28.20;42.72;92186.91;2041537;70;20186;-84
2023/07/24 10:55:45;;;;;;;13.27;9.38;;;;;;;27.70;44.19;92177.38;2041595;70;20158;-82
2023/07/24 10:58:12;;;;;;;14.63;10.00;;;;;;;27.92;45.23;92185.81;2042938;70;20151;-88
2023/07/24 11:00:43;;;;;;;12.10;9.07;;;;;;;28.16;47.85;92181.16;2041992;70;20143;-84
2023/07/24 11:03:12;;;;;;;;;;;;;;;28.15;47.98;92183.34;2041700;70;20538;-83
2023/07/24 11:05:42;;;;;;;13.02;8.95;;;;;;;27.96;46.62;92190.81;2041500;70;20466;-83
2023/07/24 11:08:18;;;;;;;13.88;9.15;;;;;;;27.88;49.89;92182.97;2041531;70;20222;-84
2023/07/24 11:10:48;;;;;;;14.23;9.38;;;;;;;27.91;48.69;92169.19;2041518;70;20238;-82
2023/07/24 11:13:16;;;;;;;11.43;8.98;;;;;;;28.02;50.78;92148.06;2041475;70;20159;-82
2023/07/24 11:15:42;;;;;;;11.90;8.63;;;;;;;27.83;51.58;92179.41;2041453;70;20140;-83
2023/07/24 11:18:08;;;;;;;12.60;9.15;;;;;;;27.94;52.39;92193.72;2041551;70;20158;-80